Terminal Aerodrome Forecast
Issued by NWS

Home | Current Version | Previous Version | Text Only | Print | Product List | Glossary On
Versions: 1 2 3 4 5 6 7 8 9 10 11 12 13
000
FTUS42 KTAE 250103 AAA
TAFVLD
TAF AMD
KVLD 250103Z 2501/2524 09005KT P6SM SCT250
     FM251100 10003KT 5SM BR BKN015
     FM251400 10007KT P6SM SCT030
     FM251900 13009KT P6SM VCTS SCT050CB PROB30 2520/2524 VRB25KT
      3SM -TSRA BKN050CB=

USA.gov is the U.S. government's official web portal to all federal, state and local government web resources and services.